Pagrindinis puslapis
METAR-TAF:

METAR-TAF

Oro uostai :

Kamčiatkos Petropavlovskas, Rusija

platuma: 53-05N, ilguma: 158-35E, Aukštis: 24 m

Dabartinis oras

Ataskaita buvo paskelbta 23 minutes, ne 13:00 UTC
Vėjas 4 kt iš Pietvakarių
Temperatūra 1°C
Drėgmė 86%
Slėgis 1009 hPa
Matomumas 10 km arba daugiau

METAR: UHPP 121300Z 22002MPS 9999 NSC 01/M01 Q1009 R16R/CLRD70 NOSIG RMK QFE754/1005

Laikas: 01:23 (13:23 UTC)

Prognozė

Ataskaita buvo paskelbta 2 valandos ir 42 minutes, ne 10:41 UTC
Prognozė galioja nuo 12 metu 12 UTC su 13 metu 18 UTC
Vėjas 6 kt iš Šiaurės/Šiaurės Vakarų su gūsio iki 23 kt
Matomumas 10 km arba daugiau

TAF: UHPP 121041Z 1212/1318 34003G12MPS 9999 NSC

Orai ataskaitas ir orų prognozės (METAR, TAF).

turimą stotys yra geltonos ir raudonos taškus žemėlapyje.

Perkelti pele per norėdami pamatyti stoties vardą.

Tada spustelėkite, norėdami matyti oro stebėjimo ir prognozės.

Norėdami pakeisti žemėlapį: spustelėkite ant žalios mygtukų su juodo kryžiaus žemyn,; žalią mygtuką su brūkšneliu, jei norite nutolinti; arba žalių rodyklių gretimoms žemėlapius.


METAR-TAF: